sensor_id;sensor_type;location;lat;lon;timestamp;P1;durP1;ratioP1;P2;durP2;ratioP2
53751;SDS011;41095;53.090;6.692;2022-09-13T00:00:38;15.50;;;11.10;;
53751;SDS011;41095;53.090;6.692;2022-09-13T00:03:05;13.98;;;10.63;;
53751;SDS011;41095;53.090;6.692;2022-09-13T00:05:38;12.90;;;9.38;;
53751;SDS011;41095;53.090;6.692;2022-09-13T00:08:04;15.68;;;11.25;;
53751;SDS011;41095;53.090;6.692;2022-09-13T00:10:32;17.65;;;13.13;;
53751;SDS011;41095;53.090;6.692;2022-09-13T00:13:04;19.42;;;13.32;;
53751;SDS011;41095;53.090;6.692;2022-09-13T00:15:32;20.65;;;13.43;;
53751;SDS011;41095;53.090;6.692;2022-09-13T00:18:24;16.40;;;12.68;;
53751;SDS011;41095;53.090;6.692;2022-09-13T00:21:09;18.00;;;11.52;;
53751;SDS011;41095;53.090;6.692;2022-09-13T00:24:04;13.40;;;10.00;;
53751;SDS011;41095;53.090;6.692;2022-09-13T00:26:56;20.38;;;13.85;;
53751;SDS011;41095;53.090;6.692;2022-09-13T00:29:21;20.40;;;14.25;;
53751;SDS011;41095;53.090;6.692;2022-09-13T00:31:47;17.10;;;13.02;;
53751;SDS011;41095;53.090;6.692;2022-09-13T00:34:29;22.70;;;14.10;;
53751;SDS011;41095;53.090;6.692;2022-09-13T00:36:56;20.05;;;13.80;;
53751;SDS011;41095;53.090;6.692;2022-09-13T00:39:22;23.95;;;14.55;;
53751;SDS011;41095;53.090;6.692;2022-09-13T00:41:49;21.00;;;14.18;;
53751;SDS011;41095;53.090;6.692;2022-09-13T00:47:20;17.60;;;13.65;;
53751;SDS011;41095;53.090;6.692;2022-09-13T00:49:56;19.35;;;12.88;;
53751;SDS011;41095;53.090;6.692;2022-09-13T00:52:44;20.50;;;15.43;;
53751;SDS011;41095;53.090;6.692;2022-09-13T00:55:17;20.15;;;14.68;;
53751;SDS011;41095;53.090;6.692;2022-09-13T00:57:55;19.90;;;15.07;;
53751;SDS011;41095;53.090;6.692;2022-09-13T01:00:25;23.02;;;14.32;;
53751;SDS011;41095;53.090;6.692;2022-09-13T01:03:32;16.45;;;12.75;;
53751;SDS011;41095;53.090;6.692;2022-09-13T01:06:05;24.25;;;16.27;;
53751;SDS011;41095;53.090;6.692;2022-09-13T01:08:35;19.83;;;15.18;;
53751;SDS011;41095;53.090;6.692;2022-09-13T01:11:05;22.67;;;15.23;;
53751;SDS011;41095;53.090;6.692;2022-09-13T01:13:51;18.15;;;13.07;;
53751;SDS011;41095;53.090;6.692;2022-09-13T01:16:24;18.75;;;14.25;;
53751;SDS011;41095;53.090;6.692;2022-09-13T01:18:52;18.33;;;13.20;;
53751;SDS011;41095;53.090;6.692;2022-09-13T01:35:08;21.40;;;11.85;;
53751;SDS011;41095;53.090;6.692;2022-09-13T01:40:27;12.48;;;9.55;;
53751;SDS011;41095;53.090;6.692;2022-09-13T01:46:29;16.52;;;10.45;;
53751;SDS011;41095;53.090;6.692;2022-09-13T01:57:43;13.98;;;8.82;;
53751;SDS011;41095;53.090;6.692;2022-09-13T02:02:55;15.75;;;11.57;;
53751;SDS011;41095;53.090;6.692;2022-09-13T02:05:43;17.15;;;10.73;;
53751;SDS011;41095;53.090;6.692;2022-09-13T02:08:14;14.27;;;10.57;;
53751;SDS011;41095;53.090;6.692;2022-09-13T02:11:11;14.52;;;11.18;;
53751;SDS011;41095;53.090;6.692;2022-09-13T02:13:45;14.20;;;9.57;;
53751;SDS011;41095;53.090;6.692;2022-09-13T02:16:34;16.67;;;10.70;;
53751;SDS011;41095;53.090;6.692;2022-09-13T02:19:02;11.15;;;8.48;;
53751;SDS011;41095;53.090;6.692;2022-09-13T02:21:40;13.70;;;10.07;;
53751;SDS011;41095;53.090;6.692;2022-09-13T02:24:17;15.20;;;10.45;;
53751;SDS011;41095;53.090;6.692;2022-09-13T02:26:46;12.57;;;9.32;;
53751;SDS011;41095;53.090;6.692;2022-09-13T02:29:35;9.45;;;8.07;;
53751;SDS011;41095;53.090;6.692;2022-09-13T02:32:32;12.45;;;10.40;;
53751;SDS011;41095;53.090;6.692;2022-09-13T02:38:36;15.50;;;9.52;;
53751;SDS011;41095;53.090;6.692;2022-09-13T02:41:31;13.73;;;10.43;;
53751;SDS011;41095;53.090;6.692;2022-09-13T02:44:24;17.10;;;11.52;;
53751;SDS011;41095;53.090;6.692;2022-09-13T02:55:43;11.25;;;9.05;;
53751;SDS011;41095;53.090;6.692;2022-09-13T03:01:07;16.05;;;11.45;;
53751;SDS011;41095;53.090;6.692;2022-09-13T03:03:33;18.60;;;13.57;;
53751;SDS011;41095;53.090;6.692;2022-09-13T03:06:07;13.52;;;9.70;;
53751;SDS011;41095;53.090;6.692;2022-09-13T03:08:56;17.17;;;12.95;;
53751;SDS011;41095;53.090;6.692;2022-09-13T03:19:39;19.25;;;13.30;;
53751;SDS011;41095;53.090;6.692;2022-09-13T03:22:53;24.20;;;13.57;;
53751;SDS011;41095;53.090;6.692;2022-09-13T03:37:15;21.23;;;15.80;;
53751;SDS011;41095;53.090;6.692;2022-09-13T03:39:44;17.40;;;13.38;;
53751;SDS011;41095;53.090;6.692;2022-09-13T03:46:05;18.50;;;14.13;;
53751;SDS011;41095;53.090;6.692;2022-09-13T03:48:38;19.65;;;14.77;;
53751;SDS011;41095;53.090;6.692;2022-09-13T03:51:05;21.73;;;13.48;;
53751;SDS011;41095;53.090;6.692;2022-09-13T03:53:46;22.13;;;13.00;;
53751;SDS011;41095;53.090;6.692;2022-09-13T03:56:20;16.55;;;13.63;;
53751;SDS011;41095;53.090;6.692;2022-09-13T03:58:46;17.27;;;13.13;;
53751;SDS011;41095;53.090;6.692;2022-09-13T04:01:21;14.57;;;10.07;;
53751;SDS011;41095;53.090;6.692;2022-09-13T04:03:57;14.88;;;10.00;;
53751;SDS011;41095;53.090;6.692;2022-09-13T04:06:27;9.90;;;7.88;;
53751;SDS011;41095;53.090;6.692;2022-09-13T04:08:59;9.95;;;7.22;;
53751;SDS011;41095;53.090;6.692;2022-09-13T04:11:34;8.10;;;6.32;;
53751;SDS011;41095;53.090;6.692;2022-09-13T04:13:59;11.38;;;8.00;;
53751;SDS011;41095;53.090;6.692;2022-09-13T04:16:25;11.02;;;6.35;;
53751;SDS011;41095;53.090;6.692;2022-09-13T04:18:51;8.50;;;6.60;;
53751;SDS011;41095;53.090;6.692;2022-09-13T04:21:26;8.85;;;6.28;;
53751;SDS011;41095;53.090;6.692;2022-09-13T04:23:52;8.15;;;5.05;;
53751;SDS011;41095;53.090;6.692;2022-09-13T04:26:30;8.27;;;5.15;;
53751;SDS011;41095;53.090;6.692;2022-09-13T04:29:03;7.05;;;4.93;;
53751;SDS011;41095;53.090;6.692;2022-09-13T04:31:31;6.82;;;4.50;;
53751;SDS011;41095;53.090;6.692;2022-09-13T04:34:21;5.18;;;4.03;;
53751;SDS011;41095;53.090;6.692;2022-09-13T04:36:47;5.28;;;3.70;;
53751;SDS011;41095;53.090;6.692;2022-09-13T04:39:16;4.53;;;3.70;;
53751;SDS011;41095;53.090;6.692;2022-09-13T04:41:44;5.07;;;3.67;;
53751;SDS011;41095;53.090;6.692;2022-09-13T04:44:12;3.88;;;3.10;;
53751;SDS011;41095;53.090;6.692;2022-09-13T04:46:47;5.63;;;4.03;;
53751;SDS011;41095;53.090;6.692;2022-09-13T04:49:14;6.50;;;4.32;;
53751;SDS011;41095;53.090;6.692;2022-09-13T04:51:41;5.85;;;4.70;;
53751;SDS011;41095;53.090;6.692;2022-09-13T04:54:19;6.05;;;4.25;;
53751;SDS011;41095;53.090;6.692;2022-09-13T04:56:46;5.60;;;4.18;;
53751;SDS011;41095;53.090;6.692;2022-09-13T04:59:25;5.07;;;3.70;;
53751;SDS011;41095;53.090;6.692;2022-09-13T05:01:58;4.57;;;3.50;;
53751;SDS011;41095;53.090;6.692;2022-09-13T05:04:24;4.55;;;3.40;;
53751;SDS011;41095;53.090;6.692;2022-09-13T05:06:51;5.35;;;3.40;;
53751;SDS011;41095;53.090;6.692;2022-09-13T05:09:26;5.38;;;3.00;;
53751;SDS011;41095;53.090;6.692;2022-09-13T05:11:53;4.38;;;2.40;;
53751;SDS011;41095;53.090;6.692;2022-09-13T05:14:33;4.57;;;3.40;;
53751;SDS011;41095;53.090;6.692;2022-09-13T05:16:59;5.43;;;3.13;;
53751;SDS011;41095;53.090;6.692;2022-09-13T05:19:26;3.53;;;2.47;;
53751;SDS011;41095;53.090;6.692;2022-09-13T05:21:53;5.05;;;2.88;;
53751;SDS011;41095;53.090;6.692;2022-09-13T05:24:25;4.28;;;2.35;;
53751;SDS011;41095;53.090;6.692;2022-09-13T05:26:53;3.33;;;2.25;;
53751;SDS011;41095;53.090;6.692;2022-09-13T05:29:38;3.20;;;2.42;;
53751;SDS011;41095;53.090;6.692;2022-09-13T05:32:04;3.97;;;2.60;;
53751;SDS011;41095;53.090;6.692;2022-09-13T05:34:36;4.13;;;2.45;;
53751;SDS011;41095;53.090;6.692;2022-09-13T05:39:43;6.63;;;2.92;;
53751;SDS011;41095;53.090;6.692;2022-09-13T05:42:09;7.40;;;2.53;;
53751;SDS011;41095;53.090;6.692;2022-09-13T05:44:34;4.68;;;2.35;;
53751;SDS011;41095;53.090;6.692;2022-09-13T05:47:09;6.57;;;2.60;;
53751;SDS011;41095;53.090;6.692;2022-09-13T05:49:37;3.92;;;2.50;;
53751;SDS011;41095;53.090;6.692;2022-09-13T05:52:03;6.07;;;2.25;;
53751;SDS011;41095;53.090;6.692;2022-09-13T05:54:30;2.55;;;2.00;;
53751;SDS011;41095;53.090;6.692;2022-09-13T05:59:33;2.22;;;1.75;;
53751;SDS011;41095;53.090;6.692;2022-09-13T06:01:59;2.90;;;2.20;;
53751;SDS011;41095;53.090;6.692;2022-09-13T06:04:26;4.22;;;1.58;;
53751;SDS011;41095;53.090;6.692;2022-09-13T06:06:52;3.00;;;1.65;;
53751;SDS011;41095;53.090;6.692;2022-09-13T06:09:18;3.60;;;1.55;;
53751;SDS011;41095;53.090;6.692;2022-09-13T06:11:50;2.80;;;1.40;;
53751;SDS011;41095;53.090;6.692;2022-09-13T06:14:15;2.55;;;1.70;;
53751;SDS011;41095;53.090;6.692;2022-09-13T06:16:47;2.45;;;1.67;;
53751;SDS011;41095;53.090;6.692;2022-09-13T06:19:16;2.42;;;1.40;;
53751;SDS011;41095;53.090;6.692;2022-09-13T06:21:41;2.83;;;1.63;;
53751;SDS011;41095;53.090;6.692;2022-09-13T06:24:26;6.72;;;1.77;;
53751;SDS011;41095;53.090;6.692;2022-09-13T06:26:51;2.55;;;1.50;;
53751;SDS011;41095;53.090;6.692;2022-09-13T06:29:18;3.95;;;1.58;;
53751;SDS011;41095;53.090;6.692;2022-09-13T06:31:47;2.80;;;1.67;;
53751;SDS011;41095;53.090;6.692;2022-09-13T06:34:21;3.38;;;1.67;;
53751;SDS011;41095;53.090;6.692;2022-09-13T06:36:48;3.08;;;1.50;;
53751;SDS011;41095;53.090;6.692;2022-09-13T06:39:36;1.95;;;1.70;;
53751;SDS011;41095;53.090;6.692;2022-09-13T06:42:01;5.13;;;2.22;;
53751;SDS011;41095;53.090;6.692;2022-09-13T06:44:27;5.97;;;2.03;;
53751;SDS011;41095;53.090;6.692;2022-09-13T06:46:57;3.30;;;1.70;;
53751;SDS011;41095;53.090;6.692;2022-09-13T06:49:24;2.67;;;1.75;;
53751;SDS011;41095;53.090;6.692;2022-09-13T06:51:56;3.45;;;2.03;;
53751;SDS011;41095;53.090;6.692;2022-09-13T06:54:28;3.60;;;2.57;;
53751;SDS011;41095;53.090;6.692;2022-09-13T06:56:55;4.38;;;2.10;;
53751;SDS011;41095;53.090;6.692;2022-09-13T06:59:21;3.55;;;2.08;;
53751;SDS011;41095;53.090;6.692;2022-09-13T07:01:48;3.10;;;1.80;;
53751;SDS011;41095;53.090;6.692;2022-09-13T07:04:31;5.30;;;1.60;;
53751;SDS011;41095;53.090;6.692;2022-09-13T07:06:57;4.32;;;1.92;;
53751;SDS011;41095;53.090;6.692;2022-09-13T07:09:28;3.80;;;1.98;;
53751;SDS011;41095;53.090;6.692;2022-09-13T07:11:54;5.35;;;1.73;;
53751;SDS011;41095;53.090;6.692;2022-09-13T07:14:21;3.80;;;1.83;;
53751;SDS011;41095;53.090;6.692;2022-09-13T07:16:48;4.25;;;2.10;;
53751;SDS011;41095;53.090;6.692;2022-09-13T07:19:33;7.53;;;2.17;;
53751;SDS011;41095;53.090;6.692;2022-09-13T07:21:59;2.88;;;1.70;;
53751;SDS011;41095;53.090;6.692;2022-09-13T07:24:27;4.03;;;1.38;;
53751;SDS011;41095;53.090;6.692;2022-09-13T07:26:53;2.00;;;1.80;;
53751;SDS011;41095;53.090;6.692;2022-09-13T07:29:20;3.88;;;1.75;;
53751;SDS011;41095;53.090;6.692;2022-09-13T07:34:41;2.47;;;1.30;;
53751;SDS011;41095;53.090;6.692;2022-09-13T07:37:07;3.10;;;1.50;;
53751;SDS011;41095;53.090;6.692;2022-09-13T07:39:33;2.97;;;1.25;;
53751;SDS011;41095;53.090;6.692;2022-09-13T07:42:00;1.95;;;1.23;;
53751;SDS011;41095;53.090;6.692;2022-09-13T07:44:31;2.67;;;1.58;;
53751;SDS011;41095;53.090;6.692;2022-09-13T07:47:06;1.55;;;1.33;;
53751;SDS011;41095;53.090;6.692;2022-09-13T07:49:45;6.20;;;1.45;;
53751;SDS011;41095;53.090;6.692;2022-09-13T07:52:12;4.45;;;1.25;;
53751;SDS011;41095;53.090;6.692;2022-09-13T07:54:38;6.38;;;1.30;;
53751;SDS011;41095;53.090;6.692;2022-09-13T07:57:05;3.20;;;1.15;;
53751;SDS011;41095;53.090;6.692;2022-09-13T07:59:37;3.38;;;1.20;;
53751;SDS011;41095;53.090;6.692;2022-09-13T08:02:04;3.30;;;1.13;;
53751;SDS011;41095;53.090;6.692;2022-09-13T08:04:30;2.53;;;1.13;;
53751;SDS011;41095;53.090;6.692;2022-09-13T08:07:03;3.17;;;1.40;;
53751;SDS011;41095;53.090;6.692;2022-09-13T08:09:30;2.90;;;0.98;;
53751;SDS011;41095;53.090;6.692;2022-09-13T08:11:57;5.72;;;1.02;;
53751;SDS011;41095;53.090;6.692;2022-09-13T08:14:24;2.95;;;1.02;;
53751;SDS011;41095;53.090;6.692;2022-09-13T08:16:57;4.45;;;1.20;;
53751;SDS011;41095;53.090;6.692;2022-09-13T08:19:23;1.83;;;0.82;;
53751;SDS011;41095;53.090;6.692;2022-09-13T08:21:55;1.83;;;1.10;;
53751;SDS011;41095;53.090;6.692;2022-09-13T08:24:23;2.92;;;1.02;;
53751;SDS011;41095;53.090;6.692;2022-09-13T08:26:52;6.65;;;1.23;;
53751;SDS011;41095;53.090;6.692;2022-09-13T08:29:19;2.08;;;1.38;;
53751;SDS011;41095;53.090;6.692;2022-09-13T08:31:44;3.47;;;1.20;;
53751;SDS011;41095;53.090;6.692;2022-09-13T08:34:14;4.50;;;1.02;;
53751;SDS011;41095;53.090;6.692;2022-09-13T08:36:41;4.25;;;1.05;;
53751;SDS011;41095;53.090;6.692;2022-09-13T08:39:10;3.42;;;1.08;;
53751;SDS011;41095;53.090;6.692;2022-09-13T08:44:28;1.63;;;0.80;;
53751;SDS011;41095;53.090;6.692;2022-09-13T08:53:02;2.97;;;1.40;;
53751;SDS011;41095;53.090;6.692;2022-09-13T08:55:52;7.55;;;1.23;;
53751;SDS011;41095;53.090;6.692;2022-09-13T08:58:45;5.88;;;1.38;;
53751;SDS011;41095;53.090;6.692;2022-09-13T09:10:06;5.40;;;1.10;;
53751;SDS011;41095;53.090;6.692;2022-09-13T09:12:54;4.68;;;1.02;;
53751;SDS011;41095;53.090;6.692;2022-09-13T09:15:28;4.07;;;1.30;;
53751;SDS011;41095;53.090;6.692;2022-09-13T09:18:09;4.78;;;1.15;;
53751;SDS011;41095;53.090;6.692;2022-09-13T09:20:40;3.42;;;1.00;;
53751;SDS011;41095;53.090;6.692;2022-09-13T09:23:17;3.22;;;0.80;;
53751;SDS011;41095;53.090;6.692;2022-09-13T09:25:55;4.60;;;0.90;;
53751;SDS011;41095;53.090;6.692;2022-09-13T09:28:53;2.60;;;0.65;;
53751;SDS011;41095;53.090;6.692;2022-09-13T09:40:05;2.92;;;0.88;;
53751;SDS011;41095;53.090;6.692;2022-09-13T09:42:46;2.20;;;1.02;;
53751;SDS011;41095;53.090;6.692;2022-09-13T09:48:03;6.10;;;1.00;;
53751;SDS011;41095;53.090;6.692;2022-09-13T09:50:38;1.83;;;0.77;;
53751;SDS011;41095;53.090;6.692;2022-09-13T09:53:27;4.50;;;1.08;;
53751;SDS011;41095;53.090;6.692;2022-09-13T09:58:40;3.33;;;0.98;;
53751;SDS011;41095;53.090;6.692;2022-09-13T10:01:17;3.78;;;1.10;;
53751;SDS011;41095;53.090;6.692;2022-09-13T10:06:42;4.78;;;1.02;;
53751;SDS011;41095;53.090;6.692;2022-09-13T10:09:15;2.90;;;0.70;;
53751;SDS011;41095;53.090;6.692;2022-09-13T10:11:56;1.77;;;0.90;;
53751;SDS011;41095;53.090;6.692;2022-09-13T10:14:42;1.85;;;0.90;;
53751;SDS011;41095;53.090;6.692;2022-09-13T10:17:23;2.00;;;0.98;;
53751;SDS011;41095;53.090;6.692;2022-09-13T10:22:39;1.80;;;1.05;;
53751;SDS011;41095;53.090;6.692;2022-09-13T10:25:17;6.05;;;2.72;;
53751;SDS011;41095;53.090;6.692;2022-09-13T10:27:48;4.95;;;0.88;;
53751;SDS011;41095;53.090;6.692;2022-09-13T10:30:29;1.63;;;0.90;;
53751;SDS011;41095;53.090;6.692;2022-09-13T10:33:02;1.55;;;0.90;;
53751;SDS011;41095;53.090;6.692;2022-09-13T10:35:35;2.13;;;0.73;;
53751;SDS011;41095;53.090;6.692;2022-09-13T10:38:02;2.15;;;1.38;;
53751;SDS011;41095;53.090;6.692;2022-09-13T10:40:41;4.15;;;2.15;;
53751;SDS011;41095;53.090;6.692;2022-09-13T10:43:14;4.25;;;1.58;;
53751;SDS011;41095;53.090;6.692;2022-09-13T10:45:44;3.90;;;1.40;;
53751;SDS011;41095;53.090;6.692;2022-09-13T10:48:15;4.17;;;1.63;;
53751;SDS011;41095;53.090;6.692;2022-09-13T10:56:58;3.63;;;1.00;;
53751;SDS011;41095;53.090;6.692;2022-09-13T10:59:25;3.35;;;1.20;;
53751;SDS011;41095;53.090;6.692;2022-09-13T11:20:21;3.63;;;1.25;;
53751;SDS011;41095;53.090;6.692;2022-09-13T11:44:10;2.42;;;1.33;;
53751;SDS011;41095;53.090;6.692;2022-09-13T11:58:39;3.30;;;1.08;;
53751;SDS011;41095;53.090;6.692;2022-09-13T12:01:32;1.90;;;1.33;;
53751;SDS011;41095;53.090;6.692;2022-09-13T12:04:06;4.05;;;1.33;;
53751;SDS011;41095;53.090;6.692;2022-09-13T12:06:53;3.53;;;0.93;;
53751;SDS011;41095;53.090;6.692;2022-09-13T12:09:37;3.40;;;1.17;;
53751;SDS011;41095;53.090;6.692;2022-09-13T12:12:11;1.77;;;1.00;;
53751;SDS011;41095;53.090;6.692;2022-09-13T12:14:46;4.07;;;1.10;;
53751;SDS011;41095;53.090;6.692;2022-09-13T12:23:22;3.60;;;1.17;;
53751;SDS011;41095;53.090;6.692;2022-09-13T12:26:38;2.42;;;1.00;;
53751;SDS011;41095;53.090;6.692;2022-09-13T12:29:43;2.00;;;1.30;;
53751;SDS011;41095;53.090;6.692;2022-09-13T12:32:48;1.95;;;1.20;;
53751;SDS011;41095;53.090;6.692;2022-09-13T12:50:04;2.90;;;1.15;;
53751;SDS011;41095;53.090;6.692;2022-09-13T12:55:59;3.88;;;1.45;;
53751;SDS011;41095;53.090;6.692;2022-09-13T13:01:39;4.65;;;1.23;;
53751;SDS011;41095;53.090;6.692;2022-09-13T13:04:18;5.57;;;1.38;;
53751;SDS011;41095;53.090;6.692;2022-09-13T13:06:52;7.30;;;1.60;;
53751;SDS011;41095;53.090;6.692;2022-09-13T13:12:25;2.88;;;1.10;;
53751;SDS011;41095;53.090;6.692;2022-09-13T13:25:56;3.85;;;1.27;;
53751;SDS011;41095;53.090;6.692;2022-09-13T13:40:27;4.88;;;1.40;;
53751;SDS011;41095;53.090;6.692;2022-09-13T13:45:42;5.43;;;1.65;;
53751;SDS011;41095;53.090;6.692;2022-09-13T13:48:50;4.20;;;1.10;;
53751;SDS011;41095;53.090;6.692;2022-09-13T13:51:23;4.18;;;1.63;;
53751;SDS011;41095;53.090;6.692;2022-09-13T13:53:55;4.70;;;1.90;;
53751;SDS011;41095;53.090;6.692;2022-09-13T13:56:25;6.05;;;1.77;;
53751;SDS011;41095;53.090;6.692;2022-09-13T14:02:05;3.85;;;1.40;;
53751;SDS011;41095;53.090;6.692;2022-09-13T14:04:46;8.52;;;1.60;;
53751;SDS011;41095;53.090;6.692;2022-09-13T14:07:19;5.85;;;1.48;;
53751;SDS011;41095;53.090;6.692;2022-09-13T14:19:30;4.78;;;1.48;;
53751;SDS011;41095;53.090;6.692;2022-09-13T14:22:15;2.63;;;0.82;;
53751;SDS011;41095;53.090;6.692;2022-09-13T14:24:58;3.25;;;2.38;;
53751;SDS011;41095;53.090;6.692;2022-09-13T14:27:44;6.78;;;1.38;;
53751;SDS011;41095;53.090;6.692;2022-09-13T14:30:31;7.07;;;1.60;;
53751;SDS011;41095;53.090;6.692;2022-09-13T14:33:15;4.32;;;1.73;;
53751;SDS011;41095;53.090;6.692;2022-09-13T14:35:56;3.53;;;1.38;;
53751;SDS011;41095;53.090;6.692;2022-09-13T14:38:32;2.23;;;1.00;;
53751;SDS011;41095;53.090;6.692;2022-09-13T14:41:13;4.20;;;1.63;;
53751;SDS011;41095;53.090;6.692;2022-09-13T14:43:41;6.18;;;1.30;;
53751;SDS011;41095;53.090;6.692;2022-09-13T14:51:15;2.53;;;1.70;;
53751;SDS011;41095;53.090;6.692;2022-09-13T14:54:20;5.97;;;1.60;;
53751;SDS011;41095;53.090;6.692;2022-09-13T14:56:59;4.53;;;1.20;;
53751;SDS011;41095;53.090;6.692;2022-09-13T14:59:46;3.20;;;1.25;;
53751;SDS011;41095;53.090;6.692;2022-09-13T15:02:47;4.93;;;1.30;;
53751;SDS011;41095;53.090;6.692;2022-09-13T15:05:30;10.15;;;1.65;;
53751;SDS011;41095;53.090;6.692;2022-09-13T15:07:57;2.33;;;1.42;;
53751;SDS011;41095;53.090;6.692;2022-09-13T15:10:41;3.42;;;1.40;;
53751;SDS011;41095;53.090;6.692;2022-09-13T15:13:09;5.70;;;1.42;;
53751;SDS011;41095;53.090;6.692;2022-09-13T15:15:47;2.72;;;1.08;;
53751;SDS011;41095;53.090;6.692;2022-09-13T15:23:25;4.40;;;1.45;;
53751;SDS011;41095;53.090;6.692;2022-09-13T15:31:32;2.65;;;1.05;;
53751;SDS011;41095;53.090;6.692;2022-09-13T15:37:01;2.15;;;1.10;;
53751;SDS011;41095;53.090;6.692;2022-09-13T15:42:37;2.67;;;1.10;;
53751;SDS011;41095;53.090;6.692;2022-09-13T15:45:03;5.10;;;1.48;;
53751;SDS011;41095;53.090;6.692;2022-09-13T15:47:32;5.82;;;1.40;;
53751;SDS011;41095;53.090;6.692;2022-09-13T15:50:00;2.08;;;1.05;;
53751;SDS011;41095;53.090;6.692;2022-09-13T15:52:39;3.30;;;1.30;;
53751;SDS011;41095;53.090;6.692;2022-09-13T15:55:11;2.97;;;1.00;;
53751;SDS011;41095;53.090;6.692;2022-09-13T15:57:40;2.90;;;1.10;;
53751;SDS011;41095;53.090;6.692;2022-09-13T16:00:13;5.40;;;1.40;;
53751;SDS011;41095;53.090;6.692;2022-09-13T16:02:40;3.00;;;1.13;;
53751;SDS011;41095;53.090;6.692;2022-09-13T16:05:15;1.20;;;1.10;;
53751;SDS011;41095;53.090;6.692;2022-09-13T16:07:50;3.08;;;1.35;;
53751;SDS011;41095;53.090;6.692;2022-09-13T16:10:26;4.05;;;1.13;;
53751;SDS011;41095;53.090;6.692;2022-09-13T16:13:03;2.38;;;1.23;;
53751;SDS011;41095;53.090;6.692;2022-09-13T16:15:30;6.55;;;1.33;;
53751;SDS011;41095;53.090;6.692;2022-09-13T16:18:03;2.60;;;1.17;;
53751;SDS011;41095;53.090;6.692;2022-09-13T16:20:38;2.72;;;1.20;;
53751;SDS011;41095;53.090;6.692;2022-09-13T16:23:03;5.07;;;1.38;;
53751;SDS011;41095;53.090;6.692;2022-09-13T16:25:29;2.55;;;1.40;;
53751;SDS011;41095;53.090;6.692;2022-09-13T16:28:03;4.43;;;1.40;;
53751;SDS011;41095;53.090;6.692;2022-09-13T16:30:29;5.10;;;1.02;;
53751;SDS011;41095;53.090;6.692;2022-09-13T16:32:57;5.03;;;1.40;;
53751;SDS011;41095;53.090;6.692;2022-09-13T16:35:29;5.20;;;1.60;;
53751;SDS011;41095;53.090;6.692;2022-09-13T16:38:26;6.03;;;1.23;;
53751;SDS011;41095;53.090;6.692;2022-09-13T16:40:55;3.53;;;1.15;;
53751;SDS011;41095;53.090;6.692;2022-09-13T16:43:40;4.40;;;1.20;;
53751;SDS011;41095;53.090;6.692;2022-09-13T16:46:15;2.50;;;1.27;;
53751;SDS011;41095;53.090;6.692;2022-09-13T16:49:06;3.90;;;1.00;;
53751;SDS011;41095;53.090;6.692;2022-09-13T16:51:31;3.05;;;2.47;;
53751;SDS011;41095;53.090;6.692;2022-09-13T16:53:58;3.75;;;1.90;;
53751;SDS011;41095;53.090;6.692;2022-09-13T16:56:25;5.13;;;1.55;;
53751;SDS011;41095;53.090;6.692;2022-09-13T16:58:51;4.38;;;1.90;;
53751;SDS011;41095;53.090;6.692;2022-09-13T17:01:24;4.13;;;1.35;;
53751;SDS011;41095;53.090;6.692;2022-09-13T17:03:57;3.03;;;1.30;;
53751;SDS011;41095;53.090;6.692;2022-09-13T17:06:23;2.28;;;1.17;;
53751;SDS011;41095;53.090;6.692;2022-09-13T17:08:55;3.28;;;1.33;;
53751;SDS011;41095;53.090;6.692;2022-09-13T17:11:34;4.63;;;1.38;;
53751;SDS011;41095;53.090;6.692;2022-09-13T17:14:03;3.90;;;1.45;;
53751;SDS011;41095;53.090;6.692;2022-09-13T17:16:33;4.65;;;1.38;;
53751;SDS011;41095;53.090;6.692;2022-09-13T17:19:11;2.28;;;0.90;;
53751;SDS011;41095;53.090;6.692;2022-09-13T17:21:43;2.95;;;1.42;;
53751;SDS011;41095;53.090;6.692;2022-09-13T17:24:09;2.42;;;1.40;;
53751;SDS011;41095;53.090;6.692;2022-09-13T17:26:35;2.83;;;1.10;;
53751;SDS011;41095;53.090;6.692;2022-09-13T17:29:07;13.00;;;1.83;;
53751;SDS011;41095;53.090;6.692;2022-09-13T17:31:42;3.58;;;1.23;;
53751;SDS011;41095;53.090;6.692;2022-09-13T17:34:08;2.90;;;1.10;;
53751;SDS011;41095;53.090;6.692;2022-09-13T17:36:34;5.38;;;1.27;;
53751;SDS011;41095;53.090;6.692;2022-09-13T17:39:00;2.05;;;1.13;;
53751;SDS011;41095;53.090;6.692;2022-09-13T17:41:26;3.00;;;1.10;;
53751;SDS011;41095;53.090;6.692;2022-09-13T17:44:07;4.93;;;1.20;;
53751;SDS011;41095;53.090;6.692;2022-09-13T17:46:51;2.25;;;1.60;;
53751;SDS011;41095;53.090;6.692;2022-09-13T17:49:18;4.03;;;1.40;;
53751;SDS011;41095;53.090;6.692;2022-09-13T17:52:06;2.55;;;1.35;;
53751;SDS011;41095;53.090;6.692;2022-09-13T17:54:33;3.78;;;1.08;;
53751;SDS011;41095;53.090;6.692;2022-09-13T17:57:06;1.95;;;1.20;;
53751;SDS011;41095;53.090;6.692;2022-09-13T17:59:41;4.85;;;1.33;;
53751;SDS011;41095;53.090;6.692;2022-09-13T18:02:11;3.78;;;1.40;;
53751;SDS011;41095;53.090;6.692;2022-09-13T18:04:38;6.03;;;1.67;;
53751;SDS011;41095;53.090;6.692;2022-09-13T18:07:04;7.78;;;1.42;;
53751;SDS011;41095;53.090;6.692;2022-09-13T18:09:30;1.48;;;1.20;;
53751;SDS011;41095;53.090;6.692;2022-09-13T18:11:56;2.65;;;1.00;;
53751;SDS011;41095;53.090;6.692;2022-09-13T18:14:22;2.58;;;1.20;;
53751;SDS011;41095;53.090;6.692;2022-09-13T18:16:50;5.55;;;1.40;;
53751;SDS011;41095;53.090;6.692;2022-09-13T18:19:20;4.75;;;1.42;;
53751;SDS011;41095;53.090;6.692;2022-09-13T18:21:56;3.60;;;1.20;;
53751;SDS011;41095;53.090;6.692;2022-09-13T18:24:26;4.82;;;1.35;;
53751;SDS011;41095;53.090;6.692;2022-09-13T18:27:00;2.60;;;0.90;;
53751;SDS011;41095;53.090;6.692;2022-09-13T18:29:27;1.92;;;1.00;;
53751;SDS011;41095;53.090;6.692;2022-09-13T18:31:55;0.80;;;0.80;;
53751;SDS011;41095;53.090;6.692;2022-09-13T18:34:21;2.80;;;1.52;;
53751;SDS011;41095;53.090;6.692;2022-09-13T18:36:47;3.15;;;1.23;;
53751;SDS011;41095;53.090;6.692;2022-09-13T18:39:16;1.77;;;1.05;;
53751;SDS011;41095;53.090;6.692;2022-09-13T18:41:49;3.83;;;1.55;;
53751;SDS011;41095;53.090;6.692;2022-09-13T18:44:16;5.50;;;1.42;;
53751;SDS011;41095;53.090;6.692;2022-09-13T18:46:43;1.38;;;1.13;;
53751;SDS011;41095;53.090;6.692;2022-09-13T18:49:13;2.72;;;1.30;;
53751;SDS011;41095;53.090;6.692;2022-09-13T18:51:40;1.90;;;1.25;;
53751;SDS011;41095;53.090;6.692;2022-09-13T18:54:28;3.72;;;1.10;;
53751;SDS011;41095;53.090;6.692;2022-09-13T18:56:57;2.60;;;1.25;;
53751;SDS011;41095;53.090;6.692;2022-09-13T18:59:25;2.33;;;1.42;;
53751;SDS011;41095;53.090;6.692;2022-09-13T19:01:58;2.88;;;1.10;;
53751;SDS011;41095;53.090;6.692;2022-09-13T19:04:24;4.75;;;1.30;;
53751;SDS011;41095;53.090;6.692;2022-09-13T19:06:59;3.67;;;1.38;;
53751;SDS011;41095;53.090;6.692;2022-09-13T19:09:28;2.10;;;1.35;;
53751;SDS011;41095;53.090;6.692;2022-09-13T19:12:00;3.92;;;1.13;;
53751;SDS011;41095;53.090;6.692;2022-09-13T19:14:28;5.38;;;1.52;;
53751;SDS011;41095;53.090;6.692;2022-09-13T19:16:57;7.18;;;1.52;;
53751;SDS011;41095;53.090;6.692;2022-09-13T19:19:32;3.85;;;2.08;;
53751;SDS011;41095;53.090;6.692;2022-09-13T19:21:59;3.80;;;1.50;;
53751;SDS011;41095;53.090;6.692;2022-09-13T19:24:25;3.15;;;1.50;;
53751;SDS011;41095;53.090;6.692;2022-09-13T19:26:53;4.60;;;1.55;;
53751;SDS011;41095;53.090;6.692;2022-09-13T19:29:20;3.25;;;1.58;;
53751;SDS011;41095;53.090;6.692;2022-09-13T19:31:48;3.60;;;1.38;;
53751;SDS011;41095;53.090;6.692;2022-09-13T19:34:19;1.85;;;1.23;;
53751;SDS011;41095;53.090;6.692;2022-09-13T19:36:48;4.55;;;1.60;;
53751;SDS011;41095;53.090;6.692;2022-09-13T19:39:22;2.85;;;1.00;;
53751;SDS011;41095;53.090;6.692;2022-09-13T19:41:54;6.25;;;1.60;;
53751;SDS011;41095;53.090;6.692;2022-09-13T19:44:21;1.43;;;1.03;;
53751;SDS011;41095;53.090;6.692;2022-09-13T19:46:48;4.15;;;1.20;;